Letona, Arkansas
Current Conditions -  °F | °C
As of 9:56 AM on Friday 31 Oct 2014 (Local Time) from KSRC Reporting Station
Clear Clear  
Wind Chill: 57°   Ceiling: Unl
Heat Index: 57°   Visibility: 10mi
Dew Point: 43°   Wind: 14mph
Humidity: 59%   Direction: 10°N
Pressure: 30.2"   Gusts: NA
Location:  35.36°N, 91.83°W
Report Text: KSRC 311456Z AUTO 01012KT 10SM CLR 14/06 A3020 RMK AO2 SLP235 T01390061 51028 TSNO
Loading
Personal Weather Stations






























Interactive Weather Map New forecast layout! Learn more

10-Day Weather Forecast

Advertisements
Track Severe Weather on mobile